Time;durP1;ratioP1;P1;durP2;ratioP2;P2;SDS_P1;SDS_P2;PMS_P1;PMS_P2;Temp;Humidity;BMP_temperature;BMP_pressure;BME280_temperature;BME280_humidity;BME280_pressure;Samples;Min_cycle;Max_cycle;Signal;HPM_P1;HPM_P2
2022/04/22 00:02:21;;;;;;;46.92;33.65;;;;;;;11.83;86.76;99758.92;2710008;86;21079;-87
2022/04/22 00:06:22;;;;;;;52.30;36.23;;;;;;;11.83;86.66;99752.27;2732517;85;21040;-87
2022/04/22 00:10:23;;;;;;;40.25;32.65;;;;;;;11.81;86.61;99752.05;2720205;86;21127;-88
2022/04/22 00:14:24;;;;;;;46.75;36.00;;;;;;;11.77;86.94;99746.16;2703296;86;21119;-87
2022/04/22 00:18:26;;;;;;;52.73;35.38;;;;;;;11.80;86.76;99741.90;2702674;85;21646;-88
2022/04/22 00:22:27;;;;;;;55.40;37.17;;;;;;;11.81;86.61;99734.73;2711849;85;21642;-87
2022/04/22 00:26:28;;;;;;;53.05;35.15;;;;;;;11.80;86.76;99739.72;2716122;85;21075;-88
2022/04/22 00:30:29;;;;;;;56.10;38.33;;;;;;;11.79;86.72;99731.38;2690122;85;21075;-88
2022/04/22 00:34:30;;;;;;;51.50;37.95;;;;;;;11.79;86.79;99737.56;2731160;86;21043;-88
2022/04/22 00:38:31;;;;;;;57.17;39.27;;;;;;;11.81;86.73;99734.73;2734255;85;21084;-88
2022/04/22 00:42:32;;;;;;;56.68;40.75;;;;;;;11.79;86.79;99732.70;2743983;83;21039;-88
2022/04/22 00:46:33;;;;;;;57.75;38.40;;;;;;;11.81;86.80;99726.73;2719889;85;20996;-87
2022/04/22 00:50:35;;;;;;;59.25;37.20;;;;;;;11.79;86.62;99732.23;2711243;85;21087;-87
2022/04/22 00:54:36;;;;;;;64.03;42.38;;;;;;;11.75;86.62;99729.48;2730856;86;21067;-88
2022/04/22 00:58:41;;;;;;;50.75;35.65;;;;;;;11.69;86.79;99730.09;2732661;85;21016;-87
2022/04/22 01:02:42;;;;;;;50.63;39.25;;;;;;;11.66;87.11;99723.21;2715414;85;21209;-87
2022/04/22 01:11:03;;;;;;;49.67;36.25;;;;;;;11.69;87.18;99712.77;2722855;86;21036;-87
2022/04/22 01:15:06;;;;;;;44.88;34.83;;;;;;;11.68;87.28;99714.58;2699566;85;21086;-87
2022/04/22 01:19:07;;;;;;;52.05;36.00;;;;;;;11.72;87.26;99713.80;2664665;85;21175;-87
2022/04/22 01:23:08;;;;;;;43.75;33.05;;;;;;;11.73;87.11;99714.14;2690642;86;21143;-88
2022/04/22 01:27:10;;;;;;;47.38;34.58;;;;;;;11.69;86.81;99716.28;2725757;85;21115;-87
2022/04/22 01:31:11;;;;;;;51.05;37.28;;;;;;;11.69;87.19;99714.10;2737423;86;21103;-87
2022/04/22 01:35:12;;;;;;;45.40;31.48;;;;;;;11.73;86.88;99702.66;2718623;86;21111;-87
2022/04/22 01:39:14;;;;;;;48.17;33.85;;;;;;;11.69;86.59;99697.64;2727725;86;21095;-86
2022/04/22 01:43:15;;;;;;;45.88;32.25;;;;;;;11.65;86.56;99698.07;2735192;85;21126;-88
2022/04/22 01:47:16;;;;;;;56.55;35.78;;;;;;;11.63;86.67;99698.71;2737151;85;21134;-87
2022/04/22 01:51:17;;;;;;;41.35;29.72;;;;;;;11.57;86.44;99694.80;2738299;85;21064;-87
2022/04/22 01:55:19;;;;;;;49.10;35.90;;;;;;;11.44;86.39;99695.14;2734485;85;21051;-87
2022/04/22 01:59:21;;;;;;;48.55;35.13;;;;;;;11.40;87.43;99688.44;2716242;86;21690;-87
2022/04/22 02:03:22;;;;;;;48.00;34.18;;;;;;;11.42;87.35;99680.63;2722466;85;21586;-86
2022/04/22 02:07:23;;;;;;;42.78;31.17;;;;;;;11.43;86.89;99670.33;2709124;85;21685;-87
2022/04/22 02:11:24;;;;;;;49.80;33.55;;;;;;;11.47;86.72;99667.36;2735718;85;21693;-88
2022/04/22 02:15:26;;;;;;;52.83;35.80;;;;;;;11.47;86.80;99674.88;2734601;85;21696;-87
2022/04/22 02:19:28;;;;;;;43.15;30.70;;;;;;;11.55;86.68;99666.97;2723072;85;21116;-88
2022/04/22 02:23:29;;;;;;;40.55;31.23;;;;;;;11.55;86.18;99668.30;2737846;85;22327;-87
2022/04/22 02:31:53;;;;;;;48.92;33.88;;;;;;;11.53;86.39;99661.47;2726509;85;21179;-87
2022/04/22 02:35:54;;;;;;;50.23;35.55;;;;;;;11.62;86.36;99657.08;2727093;85;21102;-87
2022/04/22 02:39:55;;;;;;;49.08;33.65;;;;;;;11.57;86.22;99646.86;2668653;86;21135;-86
2022/04/22 02:48:15;;;;;;;52.27;35.63;;;;;;;11.50;86.89;99645.78;2708495;86;21083;-87
2022/04/22 02:52:16;;;;;;;50.90;34.53;;;;;;;11.52;86.69;99639.81;2715277;85;21154;-87
2022/04/22 02:56:19;;;;;;;45.12;33.25;;;;;;;11.51;86.84;99641.63;2706367;85;21119;-87
2022/04/22 03:00:21;;;;;;;49.42;35.03;;;;;;;11.49;86.86;99635.61;2715978;86;21578;-87
2022/04/22 03:04:23;;;;;;;46.08;33.48;;;;;;;11.41;86.72;99643.52;2726283;85;21047;-87
2022/04/22 03:08:24;;;;;;;49.73;34.05;;;;;;;11.38;86.89;99639.78;2733743;86;21102;-87
2022/04/22 03:12:25;;;;;;;52.08;36.17;;;;;;;11.36;87.14;99645.75;2709353;85;21004;-87
2022/04/22 03:16:27;;;;;;;54.00;36.60;;;;;;;11.38;87.27;99642.45;2686082;85;21040;-86
2022/04/22 03:20:29;;;;;;;54.13;38.35;;;;;;;11.38;87.29;99640.64;2703452;85;21381;-86
2022/04/22 03:24:29;;;;;;;50.05;34.92;;;;;;;11.38;87.14;99637.13;2723460;86;21074;-87
2022/04/22 03:28:31;;;;;;;45.43;33.02;;;;;;;11.36;87.21;99637.77;2687680;86;21078;-88
2022/04/22 03:32:32;;;;;;;50.17;32.73;;;;;;;11.33;87.30;99636.73;2730029;85;21047;-86
2022/04/22 03:36:33;;;;;;;51.13;36.15;;;;;;;11.27;87.40;99629.69;2728992;85;21624;-88
2022/04/22 03:40:35;;;;;;;49.08;35.10;;;;;;;11.22;87.72;99638.61;2738608;85;21055;-87
2022/04/22 03:44:36;;;;;;;55.58;35.70;;;;;;;11.21;87.91;99638.27;2722404;85;21071;-86
2022/04/22 03:48:37;;;;;;;53.08;35.88;;;;;;;11.22;87.89;99637.28;2724511;85;21048;-87
2022/04/22 03:52:38;;;;;;;54.45;34.75;;;;;;;11.23;87.84;99638.10;2726661;85;21043;-87
2022/04/22 04:00:58;;;;;;;45.48;34.23;;;;;;;11.18;87.70;99626.55;2730390;85;21066;-87
2022/04/22 04:05:00;;;;;;;53.87;34.98;;;;;;;11.19;87.77;99618.91;2710586;84;21090;-85
2022/04/22 04:17:41;;;;;;;124.18;101.97;;;;;;;11.13;88.40;99626.16;2702076;85;21071;-87
2022/04/22 04:26:01;;;;;;;94.47;84.10;;;;;;;11.11;88.97;99624.14;2714699;86;21083;-87
2022/04/22 04:30:06;;;;;;;53.75;39.78;;;;;;;11.06;88.57;99619.75;2689114;87;21095;-87
2022/04/22 04:34:07;;;;;;;41.95;33.48;;;;;;;11.03;89.37;99626.19;2709613;85;21127;-89
2022/04/22 04:38:08;;;;;;;49.25;37.48;;;;;;;10.98;89.62;99630.61;2685687;86;21056;-88
2022/04/22 04:42:09;;;;;;;55.43;36.85;;;;;;;11.09;90.10;99632.26;2710696;85;21060;-87
2022/04/22 04:46:10;;;;;;;53.52;34.03;;;;;;;11.03;89.41;99638.17;2740026;85;21100;-87
2022/04/22 04:50:13;;;;;;;65.28;49.30;;;;;;;10.85;90.04;99631.44;2726437;85;21124;-86
2022/04/22 04:54:14;;;;;;;121.20;100.82;;;;;;;10.74;90.55;99628.93;2675738;85;21119;-86
2022/04/22 04:58:15;;;;;;;49.55;37.20;;;;;;;10.82;91.60;99626.41;2683057;86;21055;-87
2022/04/22 05:02:16;;;;;;;47.98;33.15;;;;;;;11.00;91.29;99619.84;2704052;86;21614;-87
2022/04/22 05:06:17;;;;;;;50.55;35.70;;;;;;;11.14;91.24;99619.85;2719612;85;21063;-87
2022/04/22 05:10:18;;;;;;;56.68;38.35;;;;;;;11.29;90.78;99613.55;2706926;83;21099;-87
2022/04/22 05:14:19;;;;;;;52.55;38.50;;;;;;;11.45;90.37;99608.08;2735009;85;21368;-86
2022/04/22 05:18:20;;;;;;;50.15;35.75;;;;;;;11.60;90.23;99607.11;2721771;85;21141;-87
2022/04/22 05:22:21;;;;;;;49.80;37.35;;;;;;;11.70;90.22;99609.20;2731005;86;21019;-86
2022/04/22 05:26:24;;;;;;;53.30;41.45;;;;;;;11.80;89.40;99611.33;2683274;86;21079;-87
2022/04/22 05:34:44;;;;;;;63.45;40.35;;;;;;;12.03;88.98;99618.91;2670850;86;21067;-86
2022/04/22 05:38:45;;;;;;;57.50;41.33;;;;;;;12.14;88.69;99619.19;2732248;85;21071;-86
2022/04/22 05:42:48;;;;;;;49.88;38.65;;;;;;;12.23;87.78;99622.77;2716563;85;21051;-88
2022/04/22 05:46:49;;;;;;;54.45;39.55;;;;;;;12.18;86.96;99615.70;2715431;85;21090;-86
2022/04/22 05:50:51;;;;;;;49.88;38.78;;;;;;;12.11;87.08;99619.49;2669986;86;21122;-86
2022/04/22 05:54:53;;;;;;;62.93;44.65;;;;;;;12.05;87.57;99616.94;2700447;85;21039;-86
2022/04/22 05:58:55;;;;;;;52.93;37.95;;;;;;;12.01;87.60;99614.23;2704420;86;21152;-86
2022/04/22 06:02:58;;;;;;;53.83;42.95;;;;;;;11.89;87.90;99619.40;2719944;86;21063;-85
2022/04/22 06:06:59;;;;;;;52.98;37.93;;;;;;;11.84;88.46;99614.03;2724530;85;21079;-86
2022/04/22 06:11:00;;;;;;;48.52;37.15;;;;;;;11.78;88.80;99611.95;2711761;83;21063;-86
2022/04/22 06:15:02;;;;;;;49.10;38.13;;;;;;;11.79;89.50;99617.65;2709309;86;21070;-86
2022/04/22 06:19:04;;;;;;;50.63;36.03;;;;;;;11.83;89.65;99625.68;2710772;86;21127;-86
2022/04/22 06:23:05;;;;;;;54.35;37.78;;;;;;;11.81;89.60;99622.81;2729943;85;21091;-86
2022/04/22 06:27:06;;;;;;;55.30;41.88;;;;;;;11.83;89.48;99625.68;2723325;85;21126;-86
2022/04/22 06:31:08;;;;;;;55.28;40.78;;;;;;;11.92;89.71;99621.76;2691017;86;21056;-84
2022/04/22 06:35:13;;;;;;;57.13;40.20;;;;;;;11.99;89.77;99614.85;2685643;86;21090;-86
2022/04/22 06:39:14;;;;;;;54.95;42.08;;;;;;;12.06;89.45;99615.94;2711454;86;21118;-86
2022/04/22 06:47:37;;;;;;;58.38;40.40;;;;;;;12.30;89.40;99607.81;2652943;86;22010;-86
2022/04/22 06:51:39;;;;;;;58.28;37.63;;;;;;;12.47;89.53;99611.44;2708896;85;21586;-86
2022/04/22 06:55:41;;;;;;;59.10;40.30;;;;;;;12.59;87.81;99624.06;2692576;86;21058;-86
2022/04/22 06:59:42;;;;;;;68.33;45.73;;;;;;;12.65;87.85;99615.43;2695406;86;21066;-86
2022/04/22 07:03:44;;;;;;;58.35;41.80;;;;;;;12.71;86.85;99617.46;2705420;86;21090;-86
2022/04/22 07:07:45;;;;;;;55.38;42.67;;;;;;;12.77;86.65;99619.16;2643872;86;21119;-86
2022/04/22 07:11:49;;;;;;;54.25;39.50;;;;;;;12.80;86.12;99609.53;2701388;86;21664;-86
2022/04/22 07:15:52;;;;;;;63.02;39.20;;;;;;;12.82;85.63;99616.36;2697197;86;21176;-85
2022/04/22 07:19:54;;;;;;;51.37;36.10;;;;;;;12.84;85.09;99612.22;2693786;85;21063;-86
2022/04/22 07:23:57;;;;;;;58.35;40.58;;;;;;;12.83;84.96;99618.04;2715168;86;21848;-86
2022/04/22 07:27:59;;;;;;;55.35;38.35;;;;;;;12.89;85.10;99617.91;2712402;86;21075;-86
2022/04/22 07:32:00;;;;;;;47.83;33.73;;;;;;;12.99;85.78;99613.31;2712046;86;21077;-86
2022/04/22 07:36:02;;;;;;;59.90;40.88;;;;;;;13.06;83.92;99609.48;2639788;86;21063;-86
2022/04/22 07:40:04;;;;;;;55.00;36.53;;;;;;;13.13;82.84;99621.23;2714967;86;21055;-86
2022/04/22 07:48:27;;;;;;;49.40;36.28;;;;;;;13.22;83.01;99623.45;2692179;86;21020;-86
2022/04/22 07:52:28;;;;;;;55.25;37.83;;;;;;;13.27;82.77;99622.46;2695936;86;21028;-85
2022/04/22 07:56:29;;;;;;;50.20;36.48;;;;;;;13.36;82.35;99617.14;2663075;86;21027;-86
2022/04/22 08:00:31;;;;;;;47.23;32.90;;;;;;;13.46;82.22;99621.05;2646784;81;21480;-85
2022/04/22 08:04:32;;;;;;;45.15;32.98;;;;;;;13.49;82.22;99622.91;2721913;85;21083;-85
2022/04/22 08:08:33;;;;;;;52.33;36.88;;;;;;;13.56;81.30;99624.45;2733417;85;21047;-85
2022/04/22 08:12:34;;;;;;;55.45;37.03;;;;;;;13.68;80.91;99624.50;2736331;85;21074;-86
2022/04/22 08:16:35;;;;;;;49.55;34.58;;;;;;;13.70;80.04;99622.98;2735485;85;21377;-86
2022/04/22 08:20:36;;;;;;;61.48;39.40;;;;;;;13.76;80.60;99619.68;2727050;85;21123;-85
2022/04/22 08:24:37;;;;;;;48.78;37.30;;;;;;;13.95;80.84;99625.71;2727805;84;21067;-87
2022/04/22 08:28:39;;;;;;;56.42;39.48;;;;;;;14.13;79.98;99622.39;2721626;85;21048;-85
2022/04/22 08:32:40;;;;;;;68.12;38.05;;;;;;;14.31;80.87;99621.92;2722109;85;21083;-85
2022/04/22 08:36:43;;;;;;;56.30;41.18;;;;;;;14.48;79.65;99620.08;2709552;86;21048;-85
2022/04/22 08:40:45;;;;;;;53.05;41.92;;;;;;;14.69;79.59;99619.06;2718369;86;21618;-85
2022/04/22 08:44:46;;;;;;;54.30;38.98;;;;;;;14.93;78.33;99624.59;2719280;86;21087;-84
2022/04/22 08:53:11;;;;;;;57.75;39.35;;;;;;;15.19;77.84;99623.02;2726506;86;21058;-85
2022/04/22 08:57:13;;;;;;;63.28;40.35;;;;;;;15.21;76.47;99616.98;2690374;86;21083;-85
2022/04/22 09:01:14;;;;;;;66.28;38.60;;;;;;;15.12;75.88;99614.83;2708920;86;21155;-85
2022/04/22 09:05:16;;;;;;;48.08;35.33;;;;;;;14.93;76.30;99620.56;2704475;85;21063;-85
2022/04/22 09:09:21;;;;;;;51.25;36.00;;;;;;;14.73;76.59;99611.56;2735233;85;21122;-86
2022/04/22 09:13:30;;;;;;;59.42;41.20;;;;;;;14.50;76.70;99608.70;2731133;83;21091;-86
2022/04/22 09:17:34;;;;;;;50.85;39.08;;;;;;;14.20;77.63;99614.55;2692289;86;21074;-85
2022/04/22 09:21:36;;;;;;;51.55;38.50;;;;;;;13.98;79.46;99622.22;2730899;86;21052;-85
2022/04/22 09:25:41;;;;;;;52.30;38.60;;;;;;;13.90;79.99;99612.00;2688074;87;21143;-86
2022/04/22 09:29:54;;;;;;;47.53;37.25;;;;;;;13.85;80.41;99616.02;2730073;85;21063;-86
2022/04/22 09:33:56;;;;;;;48.23;38.17;;;;;;;13.76;80.13;99613.00;2732649;86;21028;-86
2022/04/22 09:46:39;;;;;;;47.62;35.70;;;;;;;13.95;76.37;99602.50;2733781;86;21063;-86
2022/04/22 09:50:46;;;;;;;46.40;34.58;;;;;;;14.18;77.50;99597.02;2711363;85;21079;-86
2022/04/22 09:55:04;;;;;;;39.63;28.87;;;;;;;14.39;77.14;99594.67;2725638;85;21616;-86
2022/04/22 09:59:27;;;;;;;40.12;31.80;;;;;;;14.56;76.40;99604.03;2731241;86;21103;-85
2022/04/22 10:03:32;;;;;;;36.42;27.75;;;;;;;14.50;74.62;99594.84;2701766;86;21063;-85
2022/04/22 10:07:36;;;;;;;27.98;20.17;;;;;;;14.41;75.28;99587.80;2719109;85;21095;-85
2022/04/22 10:11:38;;;;;;;26.42;18.10;;;;;;;14.30;75.37;99594.33;2704706;85;21056;-86
2022/04/22 10:15:40;;;;;;;19.12;16.87;;;;;;;14.22;73.29;99598.35;2739095;83;21016;-85
2022/04/22 10:19:44;;;;;;;19.82;17.70;;;;;;;14.18;73.53;99578.30;2716094;85;21047;-85
2022/04/22 10:23:46;;;;;;;27.10;16.00;;;;;;;14.13;73.86;99588.97;2725720;85;21563;-86
2022/04/22 10:27:48;;;;;;;20.30;16.67;;;;;;;14.03;72.96;99584.78;2731904;85;21059;-85
2022/04/22 10:31:51;;;;;;;22.77;17.32;;;;;;;14.16;73.51;99569.09;2692429;86;21087;-86
2022/04/22 10:36:00;;;;;;;28.27;19.42;;;;;;;14.41;72.37;99576.61;2725572;86;21109;-85
2022/04/22 10:40:02;;;;;;;25.55;18.67;;;;;;;14.67;72.16;99572.07;2735284;85;21016;-85
2022/04/22 10:48:25;;;;;;;18.80;16.60;;;;;;;15.00;69.90;99565.30;2711437;86;21894;-86
2022/04/22 10:52:26;;;;;;;20.85;17.17;;;;;;;15.04;68.98;99570.67;2729056;85;21078;-86
2022/04/22 10:56:30;;;;;;;21.52;16.42;;;;;;;15.11;69.71;99570.30;2731724;85;21044;-86
2022/04/22 11:00:35;;;;;;;21.25;14.73;;;;;;;15.17;70.50;99563.42;2727057;84;21130;-86
2022/04/22 11:04:37;;;;;;;17.37;14.35;;;;;;;15.40;68.73;99562.65;2729091;85;21087;-86
2022/04/22 11:08:41;;;;;;;19.27;13.22;;;;;;;15.77;68.41;99563.78;2728946;85;21060;-86
2022/04/22 11:13:00;;;;;;;17.42;14.47;;;;;;;15.96;68.04;99561.67;2699340;85;21029;-85
2022/04/22 11:17:32;;;;;;;19.37;14.83;;;;;;;15.87;65.77;99562.70;2711162;85;21650;-86
2022/04/22 11:21:40;;;;;;;17.92;16.10;;;;;;;15.79;68.05;99560.41;2716957;86;21067;-86
2022/04/22 11:25:44;;;;;;;16.20;14.63;;;;;;;15.56;67.17;99562.56;2729792;85;21431;-86
2022/04/22 11:29:45;;;;;;;18.95;16.32;;;;;;;15.71;68.69;99566.66;2715299;86;21062;-86
2022/04/22 11:33:57;;;;;;;19.45;17.20;;;;;;;15.73;68.92;99562.96;2728939;85;21552;-86
2022/04/22 11:38:04;;;;;;;19.73;17.57;;;;;;;15.65;67.53;99569.20;2710785;86;21092;-86
2022/04/22 11:42:09;;;;;;;19.05;16.97;;;;;;;15.64;68.06;99550.11;2728576;85;24243;-87
2022/04/22 11:46:12;;;;;;;24.30;19.40;;;;;;;15.73;67.43;99560.28;2725461;85;21096;-86
2022/04/22 11:50:21;;;;;;;19.48;16.10;;;;;;;15.73;68.68;99562.96;2719170;86;21050;-87
2022/04/22 11:54:27;;;;;;;25.68;16.52;;;;;;;15.51;67.51;99568.12;2717296;86;21063;-87
2022/04/22 11:58:28;;;;;;;17.52;14.60;;;;;;;15.36;67.99;99566.17;2731054;85;21940;-88
2022/04/22 12:06:49;;;;;;;21.82;17.00;;;;;;;15.06;69.58;99570.48;2710913;86;21081;-85
2022/04/22 12:10:53;;;;;;;21.02;17.50;;;;;;;14.94;71.34;99574.03;2596261;88;21113;-85
2022/04/22 12:15:03;;;;;;;19.40;16.20;;;;;;;14.89;70.87;99577.22;2684442;88;21078;-85
2022/04/22 12:19:08;;;;;;;20.68;16.20;;;;;;;14.87;70.65;99579.23;2644150;88;21149;-89
2022/04/22 12:23:09;;;;;;;20.85;16.77;;;;;;;14.81;69.86;99572.72;2705477;85;21091;-85
2022/04/22 12:27:22;;;;;;;19.00;16.42;;;;;;;14.87;71.37;99573.06;2729486;85;21043;-83
2022/04/22 12:31:24;;;;;;;20.12;15.98;;;;;;;14.92;70.97;99568.84;2725937;85;20988;-84
2022/04/22 12:35:25;;;;;;;18.42;16.40;;;;;;;14.95;70.45;99569.86;2686936;87;21046;-84
2022/04/22 12:39:42;;;;;;;20.40;16.60;;;;;;;15.04;70.75;99563.12;2668616;87;21058;-86
2022/04/22 12:43:52;;;;;;;24.35;18.40;;;;;;;15.07;70.00;99574.83;2660847;87;21121;-82
2022/04/22 12:52:17;;;;;;;24.37;18.85;;;;;;;15.01;69.22;99560.80;2648142;88;21648;-83
2022/04/22 12:56:26;;;;;;;22.35;18.05;;;;;;;15.08;69.76;99563.11;2608358;88;21041;-83
2022/04/22 13:00:27;;;;;;;21.55;17.52;;;;;;;15.02;70.20;99556.59;2633475;88;21565;-83
2022/04/22 13:04:29;;;;;;;20.08;17.05;;;;;;;14.94;69.93;99551.27;2601419;87;21049;-83
2022/04/22 13:08:30;;;;;;;18.20;16.37;;;;;;;14.84;70.40;99554.15;2636855;88;21113;-83
2022/04/22 13:12:31;;;;;;;21.87;17.05;;;;;;;14.79;70.61;99560.02;2638903;88;21170;-83
2022/04/22 13:16:33;;;;;;;20.50;16.90;;;;;;;14.81;71.62;99555.84;2641403;88;21073;-90
2022/04/22 13:20:34;;;;;;;19.92;16.35;;;;;;;14.76;71.12;99556.34;2628446;88;21066;-84
2022/04/22 13:24:35;;;;;;;17.02;14.03;;;;;;;14.79;71.97;99549.83;2647769;88;21061;-85
2022/04/22 13:28:36;;;;;;;17.87;12.18;;;;;;;14.76;71.84;99552.84;2650831;88;21199;-84
2022/04/22 13:32:41;;;;;;;15.05;13.53;;;;;;;14.65;70.48;99556.17;2638142;88;21138;-85
2022/04/22 13:36:43;;;;;;;18.55;14.28;;;;;;;14.57;71.80;99558.87;2650769;88;21082;-84
2022/04/22 13:40:44;;;;;;;18.95;16.27;;;;;;;14.50;71.23;99554.70;2646567;88;21014;-85
2022/04/22 13:53:24;;;;;;;19.82;17.80;;;;;;;14.12;72.59;99548.52;2646557;88;21077;-84
2022/04/22 13:57:25;;;;;;;25.52;21.82;;;;;;;13.79;73.65;99561.88;2648054;88;21073;-84
2022/04/22 14:01:26;;;;;;;20.52;18.40;;;;;;;13.65;75.41;99558.50;2623434;89;21545;-84
2022/04/22 14:05:27;;;;;;;24.70;20.97;;;;;;;13.58;75.84;99561.51;2663402;87;21074;-84
2022/04/22 14:09:29;;;;;;;24.80;19.98;;;;;;;13.50;75.31;99556.97;2644560;88;21093;-84
2022/04/22 14:13:31;;;;;;;23.60;21.17;;;;;;;13.47;75.24;99555.45;2729570;85;21048;-84
2022/04/22 14:17:32;;;;;;;28.23;22.58;;;;;;;13.52;74.75;99558.46;2736493;85;21083;-84
2022/04/22 14:21:33;;;;;;;30.10;24.77;;;;;;;13.58;74.95;99564.17;2727851;85;21098;-83
2022/04/22 14:25:34;;;;;;;28.35;24.60;;;;;;;13.54;73.66;99571.16;2737863;85;21106;-87
2022/04/22 14:29:36;;;;;;;28.07;22.58;;;;;;;13.60;74.67;99563.52;2717313;85;21494;-82
2022/04/22 14:33:38;;;;;;;28.15;23.52;;;;;;;13.61;74.04;99571.34;2655667;86;21115;-83
2022/04/22 14:37:40;;;;;;;34.20;26.70;;;;;;;13.68;74.48;99560.84;2731989;83;21114;-83
2022/04/22 14:41:45;;;;;;;29.23;23.20;;;;;;;13.69;74.48;99575.88;2727855;86;21058;-83
2022/04/22 14:45:44;;;;;;;24.10;20.15;;;;;;;13.62;73.48;99564.18;2732017;86;21438;-83
2022/04/22 14:49:47;;;;;;;26.05;21.62;;;;;;;13.47;73.71;99562.65;2698240;86;21461;-82
2022/04/22 14:53:48;;;;;;;29.40;23.65;;;;;;;13.42;74.77;99579.13;2706310;86;21408;-83
2022/04/22 14:57:49;;;;;;;22.80;19.62;;;;;;;13.34;74.62;99574.59;2710570;86;21004;-84
2022/04/22 15:01:50;;;;;;;25.20;20.75;;;;;;;13.25;74.88;99576.87;2706526;85;21098;-83
2022/04/22 15:05:52;;;;;;;28.85;21.93;;;;;;;13.14;74.50;99578.84;2707633;85;21056;-82
2022/04/22 15:09:53;;;;;;;27.32;21.33;;;;;;;13.07;74.58;99583.64;2723543;85;21532;-83
2022/04/22 15:13:56;;;;;;;28.00;20.48;;;;;;;13.06;75.57;99579.30;2684367;86;21806;-82
2022/04/22 15:26:38;;;;;;;26.07;20.85;;;;;;;12.81;75.31;99572.50;2717892;85;21043;-84
2022/04/22 15:31:08;;;;;;;22.02;18.95;;;;;;;12.78;76.70;99586.98;2721018;86;21071;-84
2022/04/22 15:35:09;;;;;;;25.17;20.50;;;;;;;12.64;77.03;99587.55;2722668;86;21634;-83
2022/04/22 15:39:11;;;;;;;20.90;16.82;;;;;;;12.49;77.84;99582.81;2712090;85;21004;-83
2022/04/22 15:43:13;;;;;;;21.57;19.17;;;;;;;12.45;77.57;99593.94;2718417;86;21102;-84
2022/04/22 15:47:14;;;;;;;21.70;17.10;;;;;;;12.48;77.39;99593.62;2707123;85;21083;-84
2022/04/22 15:51:17;;;;;;;19.95;16.10;;;;;;;12.45;76.88;99599.27;2706866;86;21551;-84
2022/04/22 15:55:18;;;;;;;19.60;14.43;;;;;;;12.53;77.90;99593.50;2716284;85;21743;-83
2022/04/22 15:59:19;;;;;;;19.95;15.55;;;;;;;12.53;76.58;99590.84;2701948;85;21086;-84
2022/04/22 16:03:21;;;;;;;16.60;11.85;;;;;;;12.58;76.91;99594.38;2698554;85;21102;-84
2022/04/22 16:07:23;;;;;;;14.30;12.78;;;;;;;12.54;75.73;99591.66;2699304;86;21637;-83
2022/04/22 16:15:44;;;;;;;19.77;13.88;;;;;;;12.55;76.32;99586.66;2730012;86;20988;-83
2022/04/22 16:19:45;;;;;;;13.45;10.78;;;;;;;12.64;76.30;99593.74;2715565;85;21011;-83
2022/04/22 16:23:46;;;;;;;13.22;11.48;;;;;;;12.60;74.95;99606.20;2711108;86;21055;-83
2022/04/22 16:27:51;;;;;;;11.22;10.15;;;;;;;12.60;75.46;99593.72;2712851;85;21091;-83
2022/04/22 16:31:53;;;;;;;17.87;11.95;;;;;;;12.64;75.76;99596.41;2704022;86;21121;-84
2022/04/22 16:35:54;;;;;;;14.30;10.75;;;;;;;12.72;75.81;99602.30;2737040;85;21104;-84
2022/04/22 16:39:55;;;;;;;15.45;12.15;;;;;;;12.59;74.42;99593.86;2728154;85;21055;-84
2022/04/22 16:43:56;;;;;;;16.42;12.13;;;;;;;12.58;74.78;99599.72;2721392;86;21035;-84
2022/04/22 16:48:03;;;;;;;14.83;12.20;;;;;;;12.55;74.45;99597.33;2707618;86;21094;-83
2022/04/22 16:52:00;;;;;;;18.70;14.15;;;;;;;12.48;74.17;99594.47;2713934;86;21072;-85
2022/04/22 16:56:04;;;;;;;14.68;12.33;;;;;;;12.47;74.42;99601.28;2711948;85;21650;-84
2022/04/22 17:00:12;;;;;;;18.15;15.88;;;;;;;12.48;74.40;99604.29;2713026;85;21590;-84
2022/04/22 17:04:13;;;;;;;18.73;13.85;;;;;;;12.51;73.79;99611.98;2712801;85;21071;-84
2022/04/22 17:08:15;;;;;;;18.20;14.73;;;;;;;12.50;74.80;99611.64;2712610;86;21067;-85
2022/04/22 17:12:16;;;;;;;18.57;14.55;;;;;;;12.47;74.30;99614.11;2698326;86;21174;-88
2022/04/22 17:24:57;;;;;;;13.05;9.60;;;;;;;12.45;72.46;99609.94;2701672;85;21729;-83
2022/04/22 17:28:58;;;;;;;11.45;9.90;;;;;;;12.41;71.64;99615.59;2704443;85;21323;-84
2022/04/22 17:33:00;;;;;;;14.73;11.03;;;;;;;12.42;70.80;99620.41;2673551;86;21075;-86
2022/04/22 17:37:03;;;;;;;18.12;13.08;;;;;;;12.37;71.17;99622.20;2726916;85;21108;-83
2022/04/22 17:41:06;;;;;;;13.48;11.22;;;;;;;12.32;71.37;99637.83;2712245;86;21110;-84
2022/04/22 17:45:08;;;;;;;16.10;11.78;;;;;;;12.21;72.18;99636.23;2696219;86;21067;-82
2022/04/22 17:49:09;;;;;;;18.65;13.93;;;;;;;12.10;72.19;99642.63;2702546;86;21036;-84
2022/04/22 17:53:10;;;;;;;14.25;11.60;;;;;;;11.99;72.83;99648.17;2704669;85;21031;-85
2022/04/22 17:57:11;;;;;;;16.60;11.55;;;;;;;11.84;72.48;99646.01;2724161;85;21087;-81
2022/04/22 18:01:12;;;;;;;12.73;11.05;;;;;;;11.69;73.00;99654.16;2711008;84;21087;-84
2022/04/22 18:05:13;;;;;;;15.35;10.80;;;;;;;11.54;73.05;99661.81;2712707;85;21399;-84
2022/04/22 18:09:15;;;;;;;15.05;10.93;;;;;;;11.37;73.42;99670.06;2713306;86;21076;-86
2022/04/22 18:13:17;;;;;;;11.97;10.88;;;;;;;11.19;73.52;99668.16;2706661;86;21115;-84
2022/04/22 18:17:18;;;;;;;14.75;12.50;;;;;;;11.08;73.61;99671.02;2702627;86;21090;-84
2022/04/22 18:21:20;;;;;;;16.52;13.08;;;;;;;11.00;74.27;99676.58;2710949;85;21341;-84
2022/04/22 18:25:21;;;;;;;14.23;11.60;;;;;;;10.91;74.46;99675.27;2695713;86;21103;-84
2022/04/22 18:29:23;;;;;;;12.93;10.70;;;;;;;10.83;74.32;99681.30;2711329;86;21063;-84
2022/04/22 18:33:24;;;;;;;15.68;12.98;;;;;;;10.80;74.66;99682.41;2694219;85;21678;-85
2022/04/22 18:37:26;;;;;;;17.73;13.90;;;;;;;10.78;74.79;99691.50;2721289;85;21083;-85
2022/04/22 18:41:29;;;;;;;16.75;11.80;;;;;;;10.73;74.86;99686.63;2693034;85;21060;-85
2022/04/22 18:45:30;;;;;;;13.83;11.97;;;;;;;10.68;74.89;99687.05;2682722;87;21050;-83
2022/04/22 18:49:32;;;;;;;13.83;11.97;;;;;;;10.57;74.80;99696.02;2656375;88;21046;-85
2022/04/22 18:53:33;;;;;;;14.00;12.53;;;;;;;10.46;75.00;99695.31;2656804;88;21053;-85
2022/04/22 18:57:35;;;;;;;14.73;13.22;;;;;;;10.32;75.31;99688.53;2648900;87;21081;-86
2022/04/22 19:01:36;;;;;;;18.20;12.90;;;;;;;10.21;75.66;99689.50;2666408;87;21038;-85
2022/04/22 19:05:44;;;;;;;18.50;13.45;;;;;;;10.14;75.91;99687.41;2649726;88;21065;-84
2022/04/22 19:09:45;;;;;;;21.42;13.62;;;;;;;10.08;76.07;99680.00;2717377;86;21111;-84
2022/04/22 19:13:46;;;;;;;18.10;14.07;;;;;;;10.04;76.10;99683.91;2719247;86;21047;-86
2022/04/22 19:17:47;;;;;;;17.67;13.68;;;;;;;9.99;76.13;99686.12;2667506;88;21984;-85
2022/04/22 19:21:48;;;;;;;24.18;15.35;;;;;;;9.95;76.30;99687.38;2708849;86;21581;-85
2022/04/22 19:25:50;;;;;;;21.93;15.72;;;;;;;9.91;76.33;99681.98;2719012;85;21063;-85
2022/04/22 19:29:52;;;;;;;18.40;14.40;;;;;;;9.88;76.41;99687.58;2720240;86;21908;-84
2022/04/22 19:33:53;;;;;;;15.15;12.50;;;;;;;9.84;76.38;99689.19;2722103;85;21513;-85
2022/04/22 19:42:14;;;;;;;19.57;14.03;;;;;;;9.80;76.14;99683.77;2716007;86;21103;-87
2022/04/22 19:46:15;;;;;;;17.55;13.98;;;;;;;9.79;76.05;99683.41;2733654;86;21064;-90
2022/04/22 19:50:16;;;;;;;19.07;14.45;;;;;;;9.80;76.08;99686.42;2711531;85;21099;-87
2022/04/22 19:54:18;;;;;;;18.87;14.18;;;;;;;9.82;76.12;99688.45;2737579;85;21081;-86
2022/04/22 19:58:22;;;;;;;25.25;18.80;;;;;;;9.79;75.95;99687.91;2732993;86;21071;-84
2022/04/22 20:02:23;;;;;;;34.55;20.15;;;;;;;9.74;76.30;99688.30;2731901;85;21190;-85
2022/04/22 20:06:24;;;;;;;29.50;19.57;;;;;;;9.72;76.39;99695.56;2719154;85;21096;-85
2022/04/22 20:10:26;;;;;;;20.82;15.83;;;;;;;9.69;76.67;99687.87;2650270;85;21024;-85
2022/04/22 20:14:27;;;;;;;22.37;16.30;;;;;;;9.69;76.96;99694.52;2725896;85;21598;-84
2022/04/22 20:18:29;;;;;;;28.60;16.52;;;;;;;9.70;77.15;99686.89;2702507;86;21638;-85